.
WxDataArchive / Data Records for 2008-08-02
2008-08-01 August 2008 2008-08-03

Data Records for Saturday, 02 August 2008

Time	Temp	Chill	HIndex	Humid	Dewpt	 Wind 	HiWind	WindDir	Rain 	Barom 
-----	----	-----	------	-----	-----	------	------	-------	-----	----- 
00:00	69.8	69.8	69.8	93	67.7	0	2	248	0.00	29.729 
00:05	70.1	70.1	70.1	92	67.7	0	2	225	0.00	29.729 
00:10	70.3	70.3	70.3	92	67.9	1	4	248	0.00	29.729 
00:15	70.6	70.6	70.6	90	67.5	0	1	248	0.00	29.735 
00:20	70.8	70.8	70.8	90	67.7	0	2	248	0.00	29.735 
00:25	70.9	70.9	70.9	88	67.2	1	4	248	0.00	29.735 
00:30	70.9	70.9	70.9	87	66.8	1	5	248	0.00	29.736 
00:35	70.9	70.9	70.9	87	66.8	0	3	248	0.00	29.736 
00:40	70.9	70.9	70.9	86	66.5	1	3	248	0.00	29.736 
00:45	70.9	70.9	70.9	86	66.5	0	2	248	0.00	29.736 
00:50	70.9	70.9	70.9	86	66.5	1	3	248	0.00	29.736 
00:55	70.8	70.8	70.8	87	66.7	0	2	248	0.00	29.736 
01:00	70.6	70.6	70.6	87	66.5	0	2	248	0.00	29.736 
01:05	70.6	70.6	70.6	88	66.9	0	1	248	0.00	29.736 
01:10	70.4	70.4	70.4	88	66.7	0	1	248	0.00	29.736 
01:15	70.3	70.3	70.3	88	66.6	0	1	248	0.00	29.730 
01:20	70.3	70.3	70.3	88	66.6	0	1	248	0.00	29.730 
01:25	70.1	70.1	70.1	88	66.4	0	1	248	0.00	29.730 
01:30	70.1	70.1	70.1	88	66.4	0	1	248	0.00	29.722 
01:35	69.9	69.9	69.9	88	66.2	0	1	248	0.00	29.722 
01:40	69.8	69.8	69.8	88	66.1	0	1	248	0.00	29.722 
01:45	69.6	69.6	69.6	88	65.9	0	1	248	0.00	29.718 
01:50	69.4	69.4	69.4	87	65.4	0	0	---	0.00	29.718 
01:55	69.4	69.4	69.4	87	65.4	0	1	248	0.00	29.718 
02:00	69.3	69.3	69.3	86	64.9	0	1	248	0.00	29.719 
02:05	69.3	69.3	69.3	86	64.9	0	1	248	0.00	29.719 
02:10	69.3	69.3	69.3	85	64.6	0	1	248	0.00	29.719 
02:15	69.3	69.3	69.3	86	64.9	0	1	248	0.00	29.717 
02:20	69.1	69.1	69.1	86	64.7	0	1	248	0.00	29.717 
02:25	69.1	69.1	69.1	87	65.1	0	1	248	0.00	29.717 
02:30	68.9	68.9	68.9	87	64.9	0	1	248	0.00	29.713 
02:35	68.9	68.9	68.9	88	65.2	0	1	248	0.00	29.713 
02:40	68.9	68.9	68.9	88	65.2	0	1	248	0.00	29.713 
02:45	68.8	68.8	68.8	88	65.1	0	1	248	0.00	29.717 
02:50	68.8	68.8	68.8	89	65.4	0	1	248	0.00	29.717 
02:55	68.9	68.9	68.9	89	65.5	0	1	248	0.00	29.717 
03:00	68.9	68.9	68.9	90	65.8	0	1	248	0.00	29.719 
03:05	69.1	69.1	69.1	90	66.0	0	1	315	0.00	29.719 
03:10	69.3	69.3	69.3	90	66.2	0	2	315	0.00	29.719 
03:15	69.3	69.3	69.3	90	66.2	0	1	315	0.00	29.725 
03:20	69.3	69.3	69.3	91	66.6	0	1	315	0.00	29.725 
03:25	69.3	69.3	69.3	91	66.6	0	1	315	0.00	29.725 
03:30	69.3	69.3	69.3	91	66.6	0	0	---	0.00	29.726 
03:35	69.1	69.1	69.1	91	66.4	0	0	---	0.00	29.726 
03:40	69.1	69.1	69.1	92	66.7	0	0	---	0.00	29.726 
03:45	69.1	69.1	69.1	92	66.7	0	1	315	0.00	29.727 
03:50	68.9	68.9	68.9	92	66.5	0	0	---	0.00	29.727 
03:55	68.9	68.9	68.9	92	66.5	0	1	315	0.00	29.727 
04:00	68.8	68.8	68.8	92	66.4	0	1	315	0.00	29.729 
04:05	68.8	68.8	68.8	93	66.7	0	1	315	0.00	29.729 
04:10	68.8	68.8	68.8	93	66.7	0	1	315	0.00	29.729 
04:15	68.6	68.6	68.6	93	66.5	0	1	315	0.00	29.737 
04:20	68.6	68.6	68.6	93	66.5	0	1	315	0.00	29.737 
04:25	68.4	68.4	68.4	93	66.3	0	0	---	0.00	29.737 
04:30	68.4	68.4	68.4	93	66.3	0	0	---	0.00	29.741 
04:35	68.3	68.3	68.3	93	66.2	0	0	---	0.00	29.741 
04:40	68.1	68.1	68.1	93	66.0	0	0	---	0.00	29.741 
04:45	67.9	67.9	67.9	93	65.8	0	0	---	0.00	29.745 
04:50	67.8	67.8	67.8	92	65.4	0	0	---	0.00	29.745 
04:55	67.6	67.6	67.6	92	65.2	0	0	---	0.00	29.745 
05:00	67.6	67.6	67.6	92	65.2	0	1	315	0.00	29.748 
05:05	67.6	67.6	67.6	92	65.2	0	0	---	0.00	29.748 
05:10	67.6	67.6	67.6	92	65.2	0	1	315	0.00	29.748 
05:15	67.6	67.6	67.6	92	65.2	0	1	315	0.00	29.745 
05:20	67.8	67.8	67.8	91	65.1	0	1	315	0.00	29.745 
05:25	67.6	67.6	67.6	90	64.6	0	1	315	0.00	29.745 
05:30	67.6	67.6	67.6	90	64.6	0	1	315	0.00	29.747 
05:35	67.6	67.6	67.6	89	64.2	0	1	315	0.00	29.747 
05:40	67.6	67.6	67.6	89	64.2	0	2	315	0.00	29.747 
05:45	67.4	67.4	67.4	89	64.0	0	0	---	0.00	29.749 
05:50	67.4	67.4	67.4	89	64.0	0	1	315	0.00	29.749 
05:55	67.3	67.3	67.3	88	63.6	0	1	315	0.00	29.749 
06:00	67.3	67.3	67.3	88	63.6	0	0	---	0.00	29.756 
06:05	67.1	67.1	67.1	88	63.4	0	1	315	0.00	29.756 
06:10	67.1	67.1	67.1	88	63.4	0	0	---	0.00	29.756 
06:15	67.1	67.1	67.1	88	63.4	0	1	315	0.00	29.761 
06:20	67.1	67.1	67.1	88	63.4	0	1	315	0.00	29.761 
06:25	67.1	67.1	67.1	88	63.4	0	1	315	0.00	29.761 
06:30	67.3	67.3	67.3	87	63.3	0	1	315	0.00	29.764 
06:35	67.4	67.4	67.4	87	63.4	0	2	315	0.00	29.764 
06:40	67.4	67.4	67.4	86	63.1	0	1	315	0.00	29.764 
06:45	67.6	67.6	67.6	86	63.3	0	1	315	0.00	29.766 
06:50	67.8	67.8	67.8	85	63.1	0	1	315	0.00	29.766 
06:55	67.9	67.9	67.9	84	62.9	0	1	315	0.00	29.766 
07:00	68.1	68.1	68.1	84	63.1	0	1	315	0.00	29.772 
07:05	68.3	68.3	68.3	84	63.3	0	1	315	0.00	29.772 
07:10	68.6	68.6	68.6	83	63.2	0	1	315	0.00	29.772 
07:15	68.8	68.8	68.8	81	62.7	0	1	315	0.00	29.774 
07:20	68.9	68.9	68.9	81	62.8	0	1	315	0.00	29.774 
07:25	69.3	69.3	69.3	80	62.9	0	2	292	0.00	29.774 
07:30	69.4	69.4	69.4	79	62.6	0	3	292	0.00	29.777 
07:35	69.6	69.6	69.6	79	62.8	0	2	292	0.00	29.777 
07:40	69.9	69.9	69.9	78	62.7	0	1	292	0.00	29.777 
07:45	70.3	70.3	70.3	78	63.1	0	2	292	0.00	29.779 
07:50	70.4	70.4	70.4	77	62.8	0	2	292	0.00	29.779 
07:55	70.9	70.9	70.9	77	63.3	0	1	292	0.00	29.779 
08:00	71.1	71.1	71.1	75	62.8	0	4	292	0.00	29.782 
08:05	71.5	71.5	71.5	74	62.8	0	1	45	0.00	29.782 
08:10	71.6	71.6	71.6	73	62.5	0	2	338	0.00	29.782 
08:15	71.8	71.8	71.8	73	62.7	0	2	338	0.00	29.791 
08:20	72.1	72.1	72.1	73	63.0	0	1	338	0.00	29.791 
08:25	72.5	72.5	72.5	73	63.3	0	2	338	0.00	29.791 
08:30	72.8	72.8	72.8	73	63.6	0	1	338	0.00	29.793 
08:35	73.2	73.2	73.2	70	62.8	0	1	338	0.00	29.793 
08:40	73.5	73.5	73.5	69	62.7	0	2	338	0.00	29.793 
08:45	73.7	73.7	73.7	69	62.9	0	2	22	0.00	29.794 
08:50	74.0	74.0	74.0	68	62.8	0	2	315	0.00	29.794 
08:55	74.2	74.2	74.2	63	60.8	0	2	315	0.00	29.794 
09:00	74.2	74.2	74.2	65	61.7	0	1	315	0.00	29.796 
09:05	74.6	74.6	74.6	64	61.6	0	1	315	0.00	29.796 
09:10	75.1	75.1	77.2	64	62.1	0	1	315	0.00	29.796 
09:15	75.6	75.6	77.5	65	63.0	0	2	315	0.00	29.802 
09:20	75.6	75.6	77.7	61	61.2	0	2	315	0.00	29.802 
09:25	76.0	76.0	77.9	63	62.5	0	1	315	0.00	29.802 
09:30	76.3	76.3	78.2	61	61.8	0	2	315	0.00	29.807 
09:35	76.1	76.1	78.1	58	60.2	1	2	315	0.00	29.807 
09:40	76.3	76.3	78.2	61	61.8	0	2	270	0.00	29.807 
09:45	76.7	76.7	78.5	60	61.7	0	2	270	0.00	29.807 
09:50	77.2	77.2	78.9	59	61.7	0	3	45	0.00	29.807 
09:55	77.4	77.4	79.1	57	61.0	0	1	45	0.00	29.807 
10:00	77.4	77.4	79.1	58	61.4	0	2	45	0.00	29.813 
10:05	77.9	77.9	79.5	57	61.4	1	3	90	0.00	29.813 
10:10	78.1	78.1	79.6	56	61.1	1	2	90	0.00	29.813 
10:15	78.1	78.1	79.6	57	61.6	0	2	315	0.00	29.818 
10:20	77.9	77.9	79.3	54	59.9	1	4	270	0.00	29.818 
10:25	77.9	77.9	79.3	53	59.4	0	2	315	0.00	29.818 
10:30	78.1	78.1	79.4	52	59.0	1	3	292	0.00	29.824 
10:35	78.1	78.1	79.4	51	58.5	1	3	315	0.00	29.824 
10:40	77.9	77.9	79.2	51	58.3	1	3	0	0.00	29.824 
10:45	78.6	78.6	79.7	51	58.9	1	3	112	0.00	29.824 
10:50	79.2	79.2	80.4	54	61.1	1	3	315	0.00	29.824 
10:55	79.4	79.4	80.2	49	58.5	0	1	315	0.00	29.824 
11:00	79.6	79.6	80.3	48	58.2	0	2	315	0.00	29.825 
11:05	79.8	79.8	80.7	51	60.0	1	3	22	0.00	29.825 
11:10	79.8	79.8	80.3	46	57.2	1	2	90	0.00	29.825 
11:15	79.8	79.8	80.3	46	57.2	1	4	0	0.00	29.822 
11:20	79.8	79.8	80.5	49	58.9	1	3	270	0.00	29.822 
11:25	80.1	80.1	80.6	47	58.0	1	4	0	0.00	29.822 
11:30	80.3	80.3	80.4	43	55.7	1	5	270	0.00	29.821 
11:35	80.1	80.1	80.5	46	57.4	1	3	45	0.00	29.821 
11:40	80.1	80.1	80.8	49	59.2	1	5	22	0.00	29.821 
11:45	80.5	80.5	81.0	48	59.0	0	2	90	0.00	29.822 
11:50	80.5	80.5	80.6	44	56.6	1	3	270	0.00	29.822 
11:55	80.3	80.3	80.6	45	57.0	2	4	270	0.00	29.822 
12:00	80.1	80.1	80.4	45	56.8	1	5	292	0.00	29.821 
12:05	80.1	80.1	80.4	45	56.8	1	2	292	0.00	29.821 
12:10	80.3	80.3	80.6	45	57.0	1	2	292	0.00	29.821 
12:15	80.3	80.3	80.4	43	55.7	1	6	315	0.00	29.818 
12:20	80.5	80.5	80.6	44	56.6	1	6	248	0.00	29.818 
12:25	81.1	81.1	81.3	45	57.7	1	3	292	0.00	29.818 
12:30	80.9	80.9	81.0	44	56.9	1	5	292	0.00	29.819 
12:35	80.9	80.9	81.2	46	58.2	0	2	0	0.00	29.819 
12:40	81.1	81.1	81.4	46	58.3	1	3	0	0.00	29.819 
12:45	80.9	80.9	80.8	42	55.6	2	4	292	0.00	29.820 
12:50	80.5	80.5	80.4	41	54.6	1	4	315	0.00	29.820 
12:55	80.7	80.7	80.6	42	55.4	0	3	0	0.00	29.820 
13:00	81.2	81.2	80.9	41	55.2	1	7	315	0.00	29.819 
13:05	81.2	81.2	81.0	42	55.9	1	4	315	0.00	29.819 
13:10	81.2	81.2	80.8	40	54.6	1	3	0	0.00	29.819 
13:15	81.4	81.4	81.1	41	55.4	2	6	270	0.00	29.821 
13:20	81.6	81.6	80.9	38	53.5	1	3	315	0.00	29.821 
13:25	81.6	81.6	80.8	37	52.8	1	6	315	0.00	29.821 
13:30	81.4	81.4	81.2	42	56.1	1	4	292	0.00	29.821 
13:35	81.6	81.6	81.0	39	54.2	1	3	315	0.00	29.821 
13:40	81.8	81.8	81.2	39	54.4	1	4	0	0.00	29.821 
13:45	81.2	81.2	80.9	41	55.2	1	3	315	0.00	29.822 
13:50	81.2	81.2	80.8	40	54.6	1	3	315	0.00	29.822 
13:55	81.6	81.6	81.5	43	56.9	1	3	292	0.00	29.822 
14:00	82.0	82.0	81.5	40	55.3	1	3	22	0.00	29.820 
14:05	81.8	81.8	81.5	42	56.4	1	2	22	0.00	29.820 
14:10	81.8	81.8	81.3	40	55.1	1	4	315	0.00	29.820 
14:15	81.8	81.8	81.5	42	56.4	1	5	270	0.00	29.824 
14:20	81.8	81.8	81.5	42	56.4	1	4	270	0.00	29.824 
14:25	81.2	81.2	80.9	41	55.2	1	4	292	0.00	29.824 
14:30	81.4	81.4	81.1	41	55.4	1	3	292	0.00	29.822 
14:35	81.8	81.8	81.5	42	56.4	1	4	112	0.00	29.822 
14:40	81.8	81.8	81.4	41	55.8	1	4	270	0.00	29.822 
14:45	82.0	82.0	81.6	41	55.9	1	3	292	0.00	29.818 
14:50	82.4	82.4	82.2	43	57.6	1	6	0	0.00	29.818 
14:55	82.6	82.6	82.2	42	57.2	1	5	68	0.00	29.818 
15:00	82.6	82.6	81.7	38	54.4	0	2	68	0.00	29.809 
15:05	82.4	82.4	81.8	40	55.6	1	3	22	0.00	29.809 
15:10	81.8	81.8	81.6	43	57.1	1	3	22	0.00	29.809 
15:15	82.0	82.0	81.3	39	54.6	1	2	338	0.00	29.806 
15:20	82.2	82.2	81.7	41	56.1	0	1	338	0.00	29.806 
15:25	82.6	82.6	82.4	43	57.8	0	2	338	0.00	29.806 
15:30	82.6	82.6	81.8	39	55.1	1	4	270	0.00	29.803 
15:35	82.6	82.6	81.5	36	52.9	1	5	112	0.00	29.803 
15:40	82.4	82.4	81.8	40	55.6	1	3	112	0.00	29.803 
15:45	81.8	81.8	81.1	38	53.7	1	4	315	0.00	29.806 
15:50	81.6	81.6	81.6	44	57.5	0	2	338	0.00	29.806 
15:55	82.0	82.0	81.3	39	54.6	0	3	338	0.00	29.806 
16:00	82.0	82.0	81.1	37	53.1	1	3	270	0.00	29.808 
16:05	82.0	82.0	81.3	39	54.6	1	6	112	0.00	29.808 
16:10	82.2	82.2	81.6	40	55.4	0	3	315	0.00	29.808 
16:15	81.8	81.8	81.3	40	55.1	1	3	68	0.00	29.809 
16:20	81.2	81.2	81.0	42	55.9	0	2	338	0.00	29.809 
16:25	81.6	81.6	81.3	42	56.3	0	2	338	0.00	29.809 
16:30	81.6	81.6	81.0	39	54.2	1	3	315	0.00	29.807 
16:35	81.8	81.8	81.2	39	54.4	0	2	315	0.00	29.807 
16:40	81.6	81.6	81.0	39	54.2	1	3	315	0.00	29.807 
16:45	81.8	81.8	81.5	42	56.4	0	2	270	0.00	29.805 
16:50	81.8	81.8	81.2	39	54.4	1	5	90	0.00	29.805 
16:55	81.8	81.8	81.4	41	55.8	0	2	68	0.00	29.805 
17:00	81.2	81.2	80.7	39	53.9	1	3	68	0.00	29.809 
17:05	81.1	81.1	80.5	38	53.1	1	4	292	0.00	29.809 
17:10	80.9	80.9	80.4	38	52.9	0	2	315	0.00	29.809 
17:15	80.7	80.7	80.4	40	54.1	0	2	292	0.00	29.809 
17:20	80.7	80.7	80.3	39	53.4	1	4	292	0.00	29.809 
17:25	80.7	80.7	80.3	39	53.4	1	5	292	0.00	29.809 
17:30	80.3	80.3	80.1	40	53.8	0	2	135	0.00	29.817 
17:35	80.1	80.1	80.0	40	53.6	0	1	135	0.00	29.817 
17:40	80.1	80.1	80.0	40	53.6	1	5	135	0.00	29.817 
17:45	80.1	80.1	80.3	43	55.6	0	1	90	0.00	29.821 
17:50	80.1	80.1	80.3	43	55.6	0	3	90	0.00	29.821 
17:55	79.9	79.9	79.9	40	53.4	0	2	90	0.00	29.821 
18:00	80.1	80.1	79.9	39	52.9	1	3	45	0.00	29.823 
18:05	80.1	80.1	80.3	44	56.2	0	1	315	0.00	29.823 
18:10	80.1	80.1	80.1	41	54.2	0	2	315	0.00	29.823 
18:15	79.8	79.8	80.0	42	54.6	0	2	22	0.00	29.823 
18:20	79.6	79.6	79.8	42	54.5	0	3	270	0.00	29.823 
18:25	79.6	79.6	79.9	43	55.1	0	1	270	0.00	29.823 
18:30	79.4	79.4	79.7	42	54.3	0	1	270	0.00	29.832 
18:35	79.2	79.2	79.7	44	55.4	0	1	270	0.00	29.832 
18:40	78.8	78.8	79.4	43	54.4	1	2	292	0.00	29.832 
18:45	78.6	78.6	79.3	44	54.8	0	3	270	0.00	29.837 
18:50	78.5	78.5	79.4	46	56.0	0	1	270	0.00	29.837 
18:55	78.1	78.1	79.1	46	55.6	0	1	270	0.00	29.837 
19:00	78.1	78.1	79.1	46	55.6	0	2	270	0.00	29.844 
19:05	77.9	77.9	79.0	47	56.0	0	1	270	0.00	29.844 
19:10	77.6	77.6	78.8	47	55.8	0	1	270	0.00	29.844 
19:15	77.2	77.2	78.6	47	55.4	0	1	270	0.00	29.839 
19:20	76.8	76.8	78.4	48	55.6	0	1	270	0.00	29.839 
19:25	76.5	76.5	78.3	49	55.9	0	1	270	0.00	29.839 
19:30	76.1	76.1	78.1	50	56.1	0	1	270	0.00	29.844 
19:35	76.0	76.0	78.1	51	56.5	0	0	---	0.00	29.844 
19:40	75.4	75.4	77.8	52	56.5	0	0	---	0.00	29.844 
19:45	75.1	75.1	77.6	53	56.8	0	0	---	0.00	29.845 
19:50	74.7	74.7	74.7	54	56.9	0	0	---	0.00	29.845 
19:55	74.4	74.4	74.4	54	56.7	0	0	---	0.00	29.845 
20:00	74.0	74.0	74.0	55	56.8	0	0	---	0.00	29.849 
20:05	73.5	73.5	73.5	56	56.8	0	0	---	0.00	29.849 
20:10	73.2	73.2	73.2	56	56.5	0	0	---	0.00	29.849 
20:15	72.8	72.8	72.8	57	56.7	0	0	---	0.00	29.851 
20:20	72.3	72.3	72.3	58	56.7	0	0	---	0.00	29.851 
20:25	72.0	72.0	72.0	59	56.9	0	0	---	0.00	29.851 
20:30	71.6	71.6	71.6	60	57.0	0	0	---	0.00	29.857 
20:35	71.3	71.3	71.3	61	57.1	0	0	---	0.00	29.857 
20:40	71.1	71.1	71.1	61	57.0	0	0	---	0.00	29.857 
20:45	70.9	70.9	70.9	61	56.8	0	0	---	0.00	29.866 
20:50	70.6	70.6	70.6	62	56.9	0	0	---	0.00	29.866 
20:55	70.4	70.4	70.4	63	57.2	0	0	---	0.00	29.866 
21:00	70.3	70.3	70.3	64	57.5	0	0	---	0.00	29.870 
21:05	69.9	69.9	69.9	65	57.6	0	0	---	0.00	29.870 
21:10	69.6	69.6	69.6	65	57.3	0	0	---	0.00	29.870 
21:15	69.4	69.4	69.4	66	57.5	0	0	---	0.00	29.872 
21:20	69.3	69.3	69.3	68	58.3	0	0	---	0.00	29.872 
21:25	69.1	69.1	69.1	68	58.1	0	0	---	0.00	29.872 
21:30	68.9	68.9	68.9	68	57.9	0	0	---	0.00	29.878 
21:35	68.8	68.8	68.8	68	57.8	0	0	---	0.00	29.878 
21:40	68.4	68.4	68.4	69	57.8	0	0	---	0.00	29.878 
21:45	68.3	68.3	68.3	70	58.1	0	0	---	0.00	29.881 
21:50	68.1	68.1	68.1	70	57.9	0	0	---	0.00	29.881 
21:55	67.9	67.9	67.9	71	58.1	0	0	---	0.00	29.881 
22:00	67.6	67.6	67.6	71	57.9	0	0	---	0.00	29.884 
22:05	67.3	67.3	67.3	72	58.0	0	0	---	0.00	29.884 
22:10	67.1	67.1	67.1	73	58.1	0	0	---	0.00	29.884 
22:15	66.9	66.9	66.9	74	58.3	0	0	---	0.00	29.887 
22:20	66.6	66.6	66.6	75	58.4	0	0	---	0.00	29.887 
22:25	66.4	66.4	66.4	75	58.2	0	0	---	0.00	29.887 
22:30	66.3	66.3	66.3	76	58.5	0	0	---	0.00	29.885 
22:35	66.0	66.0	66.0	76	58.2	0	0	---	0.00	29.885 
22:40	65.8	65.8	65.8	77	58.4	0	0	---	0.00	29.885 
22:45	65.6	65.6	65.6	78	58.5	0	0	---	0.00	29.888 
22:50	65.5	65.5	65.5	79	58.8	0	0	---	0.00	29.888 
22:55	65.3	65.3	65.3	79	58.6	0	0	---	0.00	29.888 
23:00	65.2	65.2	65.2	80	58.9	0	0	---	0.00	29.890 
23:05	65.0	65.0	65.0	80	58.7	0	0	---	0.00	29.890 
23:10	65.0	65.0	65.0	81	59.0	0	0	---	0.00	29.890 
23:15	64.8	64.8	64.8	81	58.8	0	0	---	0.00	29.890 
23:20	64.7	64.7	64.7	81	58.7	0	0	---	0.00	29.890 
23:25	64.7	64.7	64.7	82	59.1	0	0	---	0.00	29.890 
23:30	64.5	64.5	64.5	82	58.9	0	0	---	0.00	29.901 
23:35	64.5	64.5	64.5	82	58.9	0	0	---	0.00	29.901 
23:40	64.5	64.5	64.5	82	58.9	0	0	---	0.00	29.901 
23:45	64.3	64.3	64.3	82	58.7	0	0	---	0.00	29.903 
23:50	64.2	64.2	64.2	83	58.9	0	0	---	0.00	29.903 
23:55	64.0	64.0	64.0	83	58.7	0	0	---	0.00	29.903 

CoCoRaHS
IN-AL-39
A2 Web Hosting
Creative Commons License
GoDaddy
Look for:

loaded 2017-10-20 19:48:36 • last modified 2010-11-18 10:43:29
Privacy PolicyDisclaimer
• wx.awcolley.com is powered by PmWiki v.2002016 •
• all content (unless otherwise noted) © 2017 A W Colley